Overseas Ariadmar — V7HP6 — position and weather

sailwx.info

Track history (hours):
 
Tides and Currents Weather Stations Pressure Air Temp Water Temp Dewpoint Dewpoint Depression Visibility Wind Speed Wind Dir Waves Ship Positions

Overseas Ariadmar

Last reported at 2018-Jul-11 07:45 UTC. Time now 2018-Jul-16 16:10 UTC.
Position N 38°42' E 009°41'.

Length 182 m; draft 8.5 m.

Type: Tanker. MMSI: 538002284.

Date/timePositionNaut miles runAvg speedWind from/ knotsBaromVisibWave heightAir tempDewpointWater temp
2018-Jul-11 07:45N 38°42' E 009°41'0 0.1
2018-Jul-11 07:30N 38°42' E 009°41'4 0.5
2018-Jul-10 23:42N 38°45' E 009°39'139 3.2
2018-Jul-09 03:53N 38°23' E 006°44'512.6
2018-Jul-09 03:29N 38°22' E 006°37'6912.3
2018-Jul-08 21:54N 38°10' E 005°11'1312.6
2018-Jul-08 20:51N 38°07' E 004°54'612.4
2018-Jul-08 20:22N 38°06' E 004°47'512.3
2018-Jul-08 20:00N 38°06' E 004°41'3312.0
2018-Jul-08 17:17N 37°60' E 004°00'312.5
2018-Jul-08 17:00N 37°59' E 003°56'612.3
2018-Jul-08 16:31N 37°58' E 003°48'612.1
2018-Jul-08 15:59N 37°57' E 003°40'612.2
2018-Jul-08 15:29N 37°56' E 003°33'612.3
2018-Jul-08 15:00N 37°55' E 003°25'612.4
2018-Jul-08 14:30N 37°54' E 003°18'612.0
2018-Jul-08 14:00N 37°53' E 003°10'611.7
2018-Jul-08 13:30N 37°52' E 003°03'611.8
2018-Jul-08 12:59N 37°51' E 002°55'611.8
2018-Jul-08 12:30N 37°50' E 002°48'611.8
2018-Jul-08 12:00N 37°48' E 002°41'611.5
2018-Jul-08 11:30N 37°47' E 002°34'1811.4
2018-Jul-08 09:57N 37°43' E 002°12'611.2
2018-Jul-08 09:26N 37°41' E 002°05'511.0
2018-Jul-08 08:58N 37°40' E 001°59'511.3
2018-Jul-08 08:30N 37°39' E 001°53'611.1
2018-Jul-08 08:00N 37°37' E 001°46'2011.0
2018-Jul-08 06:09N 37°32' E 001°21'411.2
2018-Jul-08 05:48N 37°31' E 001°16'411.1
2018-Jul-08 05:28N 37°30' E 001°12'511.3
2018-Jul-08 05:00N 37°29' E 001°05'611.2
2018-Jul-08 04:30N 37°28' E 000°58'611.4
2018-Jul-08 04:00N 37°26' E 000°51'611.6
2018-Jul-08 03:31N 37°25' E 000°44'611.3
2018-Jul-08 03:00N 37°23' E 000°37'511.1
2018-Jul-08 02:31N 37°22' E 000°31'611.2
2018-Jul-08 01:59N 37°20' E 000°24'611.7
2018-Jul-08 01:30N 37°18' E 000°17'611.4
2018-Jul-08 01:00N 37°15' E 000°11'611.4
2018-Jul-08 00:29N 37°13' E 000°04'511.3
2018-Jul-08 00:01N 37°11' W 000°02'611.3
2018-Jul-07 23:30N 37°08' W 000°09'511.2
2018-Jul-07 23:01N 37°06' W 000°15'611.2
2018-Jul-07 22:30N 37°04' W 000°21'1011.4
2018-Jul-07 21:37N 36°59' W 000°33'111.4
2018-Jul-07 21:30N 36°59' W 000°34'611.6
2018-Jul-07 21:00N 36°56' W 000°41'611.7
2018-Jul-07 20:30N 36°53' W 000°47'21412.1
2018-Jul-07 02:45N 36°04' W 005°07'310.6
2018-Jul-07 02:30N 36°04' W 005°10'612.1
2018-Jul-07 02:00N 36°05' W 005°17'5 9.1
2018-Jul-07 01:30N 36°07' W 005°22'1 1.3
2018-Jul-07 00:58N 36°07' W 005°22'0 0.0
2018-Jul-06 23:28N 36°07' W 005°22'0 0.0
2018-Jul-06 22:58N 36°07' W 005°22'0 0.0
2018-Jul-06 22:28N 36°07' W 005°22'0 0.2
2018-Jul-06 21:58N 36°08' W 005°22'0 0.0
2018-Jul-06 21:28N 36°08' W 005°22'0 0.1
2018-Jul-06 20:58N 36°08' W 005°22'0 0.0
2018-Jul-06 20:28N 36°08' W 005°22'0 0.0
2018-Jul-06 19:58N 36°08' W 005°22'0 0.1
2018-Jul-06 19:28N 36°08' W 005°22'0 0.1
2018-Jul-06 18:58N 36°08' W 005°22'0 0.0
2018-Jul-06 18:28N 36°08' W 005°22'0 0.2
2018-Jul-06 17:55N 36°08' W 005°22'0 0.1
2018-Jul-06 17:28N 36°08' W 005°22'0 0.1
2018-Jul-06 16:58N 36°08' W 005°22'0 0.1
2018-Jul-06 16:31N 36°08' W 005°22'1 1.4
2018-Jul-06 16:00N 36°07' W 005°22'2 5.0
2018-Jul-06 15:30N 36°05' W 005°20'3 5.0
2018-Jul-06 15:01N 36°05' W 005°17'1 1.1
2018-Jul-06 14:30N 36°05' W 005°17'1 1.4
2018-Jul-06 14:01N 36°04' W 005°17'0 0.5
2018-Jul-06 13:31N 36°04' W 005°17'1 1.9
2018-Jul-06 13:00N 36°05' W 005°16'4 8.1
2018-Jul-06 12:30N 36°05' W 005°11'2 2.3
2018-Jul-06 11:44N 36°04' W 005°11'21911.1
2018-Jul-05 16:07N 36°57' W 000°47'111.4
2018-Jul-05 16:01N 36°57' W 000°45'611.3
2018-Jul-05 15:30N 37°00' W 000°39'711.3
2018-Jul-05 14:54N 37°03' W 000°32'1011.5
2018-Jul-05 14:00N 37°06' W 000°19'611.8
2018-Jul-05 13:31N 37°08' W 000°12'612.0
2018-Jul-05 13:00N 37°10' W 000°05'611.9
2018-Jul-05 12:31N 37°12' E 000°02'611.9
2018-Jul-05 12:01N 37°14' E 000°09'611.9
2018-Jul-05 11:30N 37°17' E 000°16'612.0
2018-Jul-05 11:00N 37°19' E 000°23'611.9
2018-Jul-05 10:30N 37°21' E 000°29'612.0
2018-Jul-05 10:01N 37°23' E 000°37'612.1
2018-Jul-05 09:30N 37°24' E 000°44'611.9
2018-Jul-05 09:01N 37°26' E 000°51'911.9
2018-Jul-05 08:18N 37°28' E 001°02'7311.3
2018-Jul-05 01:47N 37°46' E 002°31'311.8
2018-Jul-05 01:30N 37°47' E 002°35'611.6
2018-Jul-05 01:00N 37°49' E 002°43'1111.5
2018-Jul-05 00:05N 37°51' E 002°56'111.4
2018-Jul-05 00:00N 37°52' E 002°57'611.3
2018-Jul-04 23:30N 37°53' E 003°04'611.8
2018-Jul-04 23:00N 37°53' E 003°11'611.7
2018-Jul-04 22:30N 37°52' E 003°19'611.5
2018-Jul-04 21:59N 37°52' E 003°26'611.6
2018-Jul-04 21:29N 37°52' E 003°33'611.8
2018-Jul-04 21:01N 37°52' E 003°41'611.7
2018-Jul-04 20:30N 37°52' E 003°48'711.9
2018-Jul-04 19:57N 37°52' E 003°56'511.7
2018-Jul-04 19:30N 37°52' E 004°03'811.7
2018-Jul-04 18:51N 37°52' E 004°13'512.0
2018-Jul-04 18:25N 37°52' E 004°19'512.2
2018-Jul-04 18:00N 37°52' E 004°26'3312.2
2018-Jul-04 15:17N 37°29' E 004°56'4612.2
2018-Jul-04 11:34N 37°15' E 005°50'113.0
2018-Jul-04 11:30N 37°15' E 005°51'712.9
2018-Jul-04 10:59N 37°14' E 005°60'1112.6
2018-Jul-04 10:05N 37°14' E 006°14'112.4
2018-Jul-04 10:00N 37°14' E 006°15'612.2
2018-Jul-04 09:31N 37°14' E 006°23'612.0
2018-Jul-04 09:00N 37°13' E 006°30'2012.0
2018-Jul-04 07:22N 37°04' E 006°52'810.9
2018-Jul-04 06:36N 36°57' E 006°59'4 8.3
2018-Jul-04 06:06N 36°54' E 006°57'0 4.5
2018-Jul-04 06:00N 36°53' E 006°57'  
Track history (hours):
 
Tides and Currents Weather Stations Pressure Air Temp Water Temp Dewpoint Dewpoint Depression Visibility Wind Speed Wind Dir Waves Ship Positions

Overseas Ariadmar

Last reported at 2018-Jul-11 07:45 UTC. Time now 2018-Jul-16 16:10 UTC.
Position N 38°42' E 009°41'.

Length 182 m; draft 8.5 m.

Type: Tanker. MMSI: 538002284.

Date/timePositionNaut miles runAvg speedWind from/ knotsBaromVisibWave heightAir tempDewpointWater temp
2018-Jul-11 07:45N 38°42' E 009°41'0 0.1
2018-Jul-11 07:30N 38°42' E 009°41'4 0.5
2018-Jul-10 23:42N 38°45' E 009°39'139 3.2
2018-Jul-09 03:53N 38°23' E 006°44'512.6
2018-Jul-09 03:29N 38°22' E 006°37'6912.3
2018-Jul-08 21:54N 38°10' E 005°11'1312.6
2018-Jul-08 20:51N 38°07' E 004°54'612.4
2018-Jul-08 20:22N 38°06' E 004°47'512.3
2018-Jul-08 20:00N 38°06' E 004°41'3312.0
2018-Jul-08 17:17N 37°60' E 004°00'312.5
2018-Jul-08 17:00N 37°59' E 003°56'612.3
2018-Jul-08 16:31N 37°58' E 003°48'612.1
2018-Jul-08 15:59N 37°57' E 003°40'612.2
2018-Jul-08 15:29N 37°56' E 003°33'612.3
2018-Jul-08 15:00N 37°55' E 003°25'612.4
2018-Jul-08 14:30N 37°54' E 003°18'612.0
2018-Jul-08 14:00N 37°53' E 003°10'611.7
2018-Jul-08 13:30N 37°52' E 003°03'611.8
2018-Jul-08 12:59N 37°51' E 002°55'611.8
2018-Jul-08 12:30N 37°50' E 002°48'611.8
2018-Jul-08 12:00N 37°48' E 002°41'611.5
2018-Jul-08 11:30N 37°47' E 002°34'1811.4
2018-Jul-08 09:57N 37°43' E 002°12'611.2
2018-Jul-08 09:26N 37°41' E 002°05'511.0
2018-Jul-08 08:58N 37°40' E 001°59'511.3
2018-Jul-08 08:30N 37°39' E 001°53'611.1
2018-Jul-08 08:00N 37°37' E 001°46'2011.0
2018-Jul-08 06:09N 37°32' E 001°21'411.2
2018-Jul-08 05:48N 37°31' E 001°16'411.1
2018-Jul-08 05:28N 37°30' E 001°12'511.3
2018-Jul-08 05:00N 37°29' E 001°05'611.2
2018-Jul-08 04:30N 37°28' E 000°58'611.4
2018-Jul-08 04:00N 37°26' E 000°51'611.6
2018-Jul-08 03:31N 37°25' E 000°44'611.3
2018-Jul-08 03:00N 37°23' E 000°37'511.1
2018-Jul-08 02:31N 37°22' E 000°31'611.2
2018-Jul-08 01:59N 37°20' E 000°24'611.7
2018-Jul-08 01:30N 37°18' E 000°17'611.4
2018-Jul-08 01:00N 37°15' E 000°11'611.4
2018-Jul-08 00:29N 37°13' E 000°04'511.3
2018-Jul-08 00:01N 37°11' W 000°02'611.3
2018-Jul-07 23:30N 37°08' W 000°09'511.2
2018-Jul-07 23:01N 37°06' W 000°15'611.2
2018-Jul-07 22:30N 37°04' W 000°21'1011.4
2018-Jul-07 21:37N 36°59' W 000°33'111.4
2018-Jul-07 21:30N 36°59' W 000°34'611.6
2018-Jul-07 21:00N 36°56' W 000°41'611.7
2018-Jul-07 20:30N 36°53' W 000°47'21412.1
2018-Jul-07 02:45N 36°04' W 005°07'310.6
2018-Jul-07 02:30N 36°04' W 005°10'612.1
2018-Jul-07 02:00N 36°05' W 005°17'5 9.1
2018-Jul-07 01:30N 36°07' W 005°22'1 1.3
2018-Jul-07 00:58N 36°07' W 005°22'0 0.0
2018-Jul-06 23:28N 36°07' W 005°22'0 0.0
2018-Jul-06 22:58N 36°07' W 005°22'0 0.0
2018-Jul-06 22:28N 36°07' W 005°22'0 0.2
2018-Jul-06 21:58N 36°08' W 005°22'0 0.0
2018-Jul-06 21:28N 36°08' W 005°22'0 0.1
2018-Jul-06 20:58N 36°08' W 005°22'0 0.0
2018-Jul-06 20:28N 36°08' W 005°22'0 0.0
2018-Jul-06 19:58N 36°08' W 005°22'0 0.1
2018-Jul-06 19:28N 36°08' W 005°22'0 0.1
2018-Jul-06 18:58N 36°08' W 005°22'0 0.0
2018-Jul-06 18:28N 36°08' W 005°22'0 0.2
2018-Jul-06 17:55N 36°08' W 005°22'0 0.1
2018-Jul-06 17:28N 36°08' W 005°22'0 0.1
2018-Jul-06 16:58N 36°08' W 005°22'0 0.1
2018-Jul-06 16:31N 36°08' W 005°22'1 1.4
2018-Jul-06 16:00N 36°07' W 005°22'2 5.0
2018-Jul-06 15:30N 36°05' W 005°20'3 5.0
2018-Jul-06 15:01N 36°05' W 005°17'1 1.1
2018-Jul-06 14:30N 36°05' W 005°17'1 1.4
2018-Jul-06 14:01N 36°04' W 005°17'0 0.5
2018-Jul-06 13:31N 36°04' W 005°17'1 1.9
2018-Jul-06 13:00N 36°05' W 005°16'4 8.1
2018-Jul-06 12:30N 36°05' W 005°11'2 2.3
2018-Jul-06 11:44N 36°04' W 005°11'21911.1
2018-Jul-05 16:07N 36°57' W 000°47'111.4
2018-Jul-05 16:01N 36°57' W 000°45'611.3
2018-Jul-05 15:30N 37°00' W 000°39'711.3
2018-Jul-05 14:54N 37°03' W 000°32'1011.5
2018-Jul-05 14:00N 37°06' W 000°19'611.8
2018-Jul-05 13:31N 37°08' W 000°12'612.0
2018-Jul-05 13:00N 37°10' W 000°05'611.9
2018-Jul-05 12:31N 37°12' E 000°02'611.9
2018-Jul-05 12:01N 37°14' E 000°09'611.9
2018-Jul-05 11:30N 37°17' E 000°16'612.0
2018-Jul-05 11:00N 37°19' E 000°23'611.9
2018-Jul-05 10:30N 37°21' E 000°29'612.0
2018-Jul-05 10:01N 37°23' E 000°37'612.1
2018-Jul-05 09:30N 37°24' E 000°44'611.9
2018-Jul-05 09:01N 37°26' E 000°51'911.9
2018-Jul-05 08:18N 37°28' E 001°02'7311.3
2018-Jul-05 01:47N 37°46' E 002°31'311.8
2018-Jul-05 01:30N 37°47' E 002°35'611.6
2018-Jul-05 01:00N 37°49' E 002°43'1111.5
2018-Jul-05 00:05N 37°51' E 002°56'111.4
2018-Jul-05 00:00N 37°52' E 002°57'611.3
2018-Jul-04 23:30N 37°53' E 003°04'611.8
2018-Jul-04 23:00N 37°53' E 003°11'611.7
2018-Jul-04 22:30N 37°52' E 003°19'611.5
2018-Jul-04 21:59N 37°52' E 003°26'611.6
2018-Jul-04 21:29N 37°52' E 003°33'611.8
2018-Jul-04 21:01N 37°52' E 003°41'611.7
2018-Jul-04 20:30N 37°52' E 003°48'711.9
2018-Jul-04 19:57N 37°52' E 003°56'511.7
2018-Jul-04 19:30N 37°52' E 004°03'811.7
2018-Jul-04 18:51N 37°52' E 004°13'512.0
2018-Jul-04 18:25N 37°52' E 004°19'512.2
2018-Jul-04 18:00N 37°52' E 004°26'3312.2
2018-Jul-04 15:17N 37°29' E 004°56'4612.2
2018-Jul-04 11:34N 37°15' E 005°50'113.0
2018-Jul-04 11:30N 37°15' E 005°51'712.9
2018-Jul-04 10:59N 37°14' E 005°60'1112.6
2018-Jul-04 10:05N 37°14' E 006°14'112.4
2018-Jul-04 10:00N 37°14' E 006°15'612.2
2018-Jul-04 09:31N 37°14' E 006°23'612.0
2018-Jul-04 09:00N 37°13' E 006°30'2012.0
2018-Jul-04 07:22N 37°04' E 006°52'810.9
2018-Jul-04 06:36N 36°57' E 006°59'4 8.3
2018-Jul-04 06:06N 36°54' E 006°57'0 4.5
2018-Jul-04 06:00N 36°53' E 006°57'  

Dump ship's entire track history